Terminal Aerodrome Forecast
Issued by NWS

Home | Current Version | Previous Version | Text Only | Print | Product List | Glossary Off
Versions: 1 2 3 4 5 6 7 8 9 10 11 12 13 14 15 16 17 18 19 20 21 22 23 24 25

922
FTUS43 KLOT 232330
TAFDPA
TAF
KDPA 232330Z 2400/2424 06008KT P6SM BKN020
     FM240500 08006KT 4SM BR FEW008 OVC010
     FM241600 08009KT P6SM BKN017 BKN040
     FM242100 09009KT P6SM BKN035 BKN050=

USA.gov is the U.S. government's official web portal to all federal, state and local government web resources and services.